sensor_id;sensor_type;location;lat;lon;timestamp;P1;durP1;ratioP1;P2;durP2;ratioP2
54993;SDS011;40891;47.242;8.648;2022-07-30T00:00:37;5.88;;;3.35;;
54993;SDS011;40891;47.242;8.648;2022-07-30T00:03:02;3.30;;;2.97;;
54993;SDS011;40891;47.242;8.648;2022-07-30T00:05:28;6.50;;;3.10;;
54993;SDS011;40891;47.242;8.648;2022-07-30T00:07:53;4.78;;;3.20;;
54993;SDS011;40891;47.242;8.648;2022-07-30T00:10:19;5.07;;;2.47;;
54993;SDS011;40891;47.242;8.648;2022-07-30T00:12:46;3.88;;;2.80;;
54993;SDS011;40891;47.242;8.648;2022-07-30T00:15:12;7.28;;;3.05;;
54993;SDS011;40891;47.242;8.648;2022-07-30T00:17:37;4.85;;;3.20;;
54993;SDS011;40891;47.242;8.648;2022-07-30T00:20:03;3.97;;;3.00;;
54993;SDS011;40891;47.242;8.648;2022-07-30T00:22:29;7.03;;;3.03;;
54993;SDS011;40891;47.242;8.648;2022-07-30T00:24:55;3.25;;;2.70;;
54993;SDS011;40891;47.242;8.648;2022-07-30T00:27:20;4.80;;;3.20;;
54993;SDS011;40891;47.242;8.648;2022-07-30T00:29:46;5.50;;;2.92;;
54993;SDS011;40891;47.242;8.648;2022-07-30T00:32:11;4.63;;;3.25;;
54993;SDS011;40891;47.242;8.648;2022-07-30T00:34:36;7.00;;;3.40;;
54993;SDS011;40891;47.242;8.648;2022-07-30T00:37:02;4.32;;;2.97;;
54993;SDS011;40891;47.242;8.648;2022-07-30T00:39:27;5.38;;;2.88;;
54993;SDS011;40891;47.242;8.648;2022-07-30T00:41:55;3.47;;;2.70;;
54993;SDS011;40891;47.242;8.648;2022-07-30T00:44:21;4.90;;;2.90;;
54993;SDS011;40891;47.242;8.648;2022-07-30T00:46:47;6.53;;;2.83;;
54993;SDS011;40891;47.242;8.648;2022-07-30T00:49:12;3.45;;;2.90;;
54993;SDS011;40891;47.242;8.648;2022-07-30T00:51:38;3.45;;;2.65;;
54993;SDS011;40891;47.242;8.648;2022-07-30T00:54:03;3.35;;;2.53;;
54993;SDS011;40891;47.242;8.648;2022-07-30T00:56:28;5.72;;;2.78;;
54993;SDS011;40891;47.242;8.648;2022-07-30T00:58:53;4.65;;;2.63;;
54993;SDS011;40891;47.242;8.648;2022-07-30T01:01:19;3.80;;;2.95;;
54993;SDS011;40891;47.242;8.648;2022-07-30T01:03:44;3.88;;;3.00;;
54993;SDS011;40891;47.242;8.648;2022-07-30T01:06:10;3.63;;;2.90;;
54993;SDS011;40891;47.242;8.648;2022-07-30T01:08:35;4.50;;;2.95;;
54993;SDS011;40891;47.242;8.648;2022-07-30T01:11:01;6.90;;;2.85;;
54993;SDS011;40891;47.242;8.648;2022-07-30T01:13:26;6.30;;;2.85;;
54993;SDS011;40891;47.242;8.648;2022-07-30T01:15:51;10.63;;;3.22;;
54993;SDS011;40891;47.242;8.648;2022-07-30T01:18:17;5.63;;;3.03;;
54993;SDS011;40891;47.242;8.648;2022-07-30T01:23:38;3.35;;;2.13;;
54993;SDS011;40891;47.242;8.648;2022-07-30T01:26:08;4.60;;;2.13;;
54993;SDS011;40891;47.242;8.648;2022-07-30T01:28:37;5.65;;;2.55;;
54993;SDS011;40891;47.242;8.648;2022-07-30T01:31:06;4.18;;;2.88;;
54993;SDS011;40891;47.242;8.648;2022-07-30T01:33:34;6.63;;;3.08;;
54993;SDS011;40891;47.242;8.648;2022-07-30T01:36:03;4.07;;;2.55;;
54993;SDS011;40891;47.242;8.648;2022-07-30T01:38:32;3.03;;;2.58;;
54993;SDS011;40891;47.242;8.648;2022-07-30T01:41:00;5.72;;;2.92;;
54993;SDS011;40891;47.242;8.648;2022-07-30T01:43:26;4.70;;;3.03;;
54993;SDS011;40891;47.242;8.648;2022-07-30T01:45:52;5.13;;;2.78;;
54993;SDS011;40891;47.242;8.648;2022-07-30T01:48:20;7.05;;;2.92;;
54993;SDS011;40891;47.242;8.648;2022-07-30T01:50:51;2.50;;;2.30;;
54993;SDS011;40891;47.242;8.648;2022-07-30T01:53:20;4.35;;;2.40;;
54993;SDS011;40891;47.242;8.648;2022-07-30T01:55:49;2.83;;;2.22;;
54993;SDS011;40891;47.242;8.648;2022-07-30T01:58:15;3.20;;;2.85;;
54993;SDS011;40891;47.242;8.648;2022-07-30T02:00:43;6.25;;;2.65;;
54993;SDS011;40891;47.242;8.648;2022-07-30T02:03:11;3.75;;;2.67;;
54993;SDS011;40891;47.242;8.648;2022-07-30T02:05:37;6.50;;;2.63;;
54993;SDS011;40891;47.242;8.648;2022-07-30T02:08:12;7.70;;;3.00;;
54993;SDS011;40891;47.242;8.648;2022-07-30T02:10:45;9.95;;;2.90;;
54993;SDS011;40891;47.242;8.648;2022-07-30T02:13:16;3.78;;;2.55;;
54993;SDS011;40891;47.242;8.648;2022-07-30T02:20:57;3.08;;;2.70;;
54993;SDS011;40891;47.242;8.648;2022-07-30T02:23:25;3.72;;;2.55;;
54993;SDS011;40891;47.242;8.648;2022-07-30T02:25:52;3.42;;;2.92;;
54993;SDS011;40891;47.242;8.648;2022-07-30T02:28:18;3.05;;;2.60;;
54993;SDS011;40891;47.242;8.648;2022-07-30T02:30:47;5.28;;;2.80;;
54993;SDS011;40891;47.242;8.648;2022-07-30T02:33:16;7.25;;;3.03;;
54993;SDS011;40891;47.242;8.648;2022-07-30T02:35:45;6.32;;;2.47;;
54993;SDS011;40891;47.242;8.648;2022-07-30T02:38:11;4.18;;;2.53;;
54993;SDS011;40891;47.242;8.648;2022-07-30T02:40:41;4.03;;;2.90;;
54993;SDS011;40891;47.242;8.648;2022-07-30T02:43:08;6.75;;;2.92;;
54993;SDS011;40891;47.242;8.648;2022-07-30T02:45:34;7.53;;;3.05;;
54993;SDS011;40891;47.242;8.648;2022-07-30T02:48:03;3.03;;;2.70;;
54993;SDS011;40891;47.242;8.648;2022-07-30T02:50:31;4.68;;;2.53;;
54993;SDS011;40891;47.242;8.648;2022-07-30T02:52:58;4.90;;;2.72;;
54993;SDS011;40891;47.242;8.648;2022-07-30T02:55:26;4.25;;;2.88;;
54993;SDS011;40891;47.242;8.648;2022-07-30T02:57:54;2.88;;;2.60;;
54993;SDS011;40891;47.242;8.648;2022-07-30T03:00:20;4.75;;;3.38;;
54993;SDS011;40891;47.242;8.648;2022-07-30T03:02:48;3.00;;;2.80;;
54993;SDS011;40891;47.242;8.648;2022-07-30T03:05:14;4.22;;;2.80;;
54993;SDS011;40891;47.242;8.648;2022-07-30T03:07:40;3.45;;;2.60;;
54993;SDS011;40891;47.242;8.648;2022-07-30T03:10:06;4.35;;;2.97;;
54993;SDS011;40891;47.242;8.648;2022-07-30T03:12:33;3.83;;;2.92;;
54993;SDS011;40891;47.242;8.648;2022-07-30T03:14:59;3.40;;;2.90;;
54993;SDS011;40891;47.242;8.648;2022-07-30T03:17:25;4.80;;;2.50;;
54993;SDS011;40891;47.242;8.648;2022-07-30T03:19:55;3.67;;;3.15;;
54993;SDS011;40891;47.242;8.648;2022-07-30T03:22:24;7.10;;;3.10;;
54993;SDS011;40891;47.242;8.648;2022-07-30T03:24:51;4.15;;;2.85;;
54993;SDS011;40891;47.242;8.648;2022-07-30T03:27:18;3.65;;;2.97;;
54993;SDS011;40891;47.242;8.648;2022-07-30T03:29:46;4.30;;;2.93;;
54993;SDS011;40891;47.242;8.648;2022-07-30T03:32:13;4.03;;;2.97;;
54993;SDS011;40891;47.242;8.648;2022-07-30T03:34:39;5.93;;;2.80;;
54993;SDS011;40891;47.242;8.648;2022-07-30T03:37:06;7.10;;;3.15;;
54993;SDS011;40891;47.242;8.648;2022-07-30T03:39:32;4.97;;;2.72;;
54993;SDS011;40891;47.242;8.648;2022-07-30T03:41:58;5.47;;;2.97;;
54993;SDS011;40891;47.242;8.648;2022-07-30T03:44:24;3.95;;;3.25;;
54993;SDS011;40891;47.242;8.648;2022-07-30T03:46:51;5.93;;;3.05;;
54993;SDS011;40891;47.242;8.648;2022-07-30T03:49:18;5.38;;;2.75;;
54993;SDS011;40891;47.242;8.648;2022-07-30T03:51:45;6.20;;;2.90;;
54993;SDS011;40891;47.242;8.648;2022-07-30T03:54:11;7.50;;;3.15;;
54993;SDS011;40891;47.242;8.648;2022-07-30T03:56:37;5.45;;;3.20;;
54993;SDS011;40891;47.242;8.648;2022-07-30T03:59:03;3.63;;;3.13;;
54993;SDS011;40891;47.242;8.648;2022-07-30T04:01:29;6.10;;;3.00;;
54993;SDS011;40891;47.242;8.648;2022-07-30T04:04:02;3.45;;;3.03;;
54993;SDS011;40891;47.242;8.648;2022-07-30T04:06:31;5.15;;;2.70;;
54993;SDS011;40891;47.242;8.648;2022-07-30T04:09:00;4.22;;;2.67;;
54993;SDS011;40891;47.242;8.648;2022-07-30T04:11:26;3.33;;;2.80;;
54993;SDS011;40891;47.242;8.648;2022-07-30T04:13:51;3.80;;;2.80;;
54993;SDS011;40891;47.242;8.648;2022-07-30T04:16:22;3.78;;;3.22;;
54993;SDS011;40891;47.242;8.648;2022-07-30T04:18:55;5.22;;;3.22;;
54993;SDS011;40891;47.242;8.648;2022-07-30T04:21:23;5.57;;;3.10;;
54993;SDS011;40891;47.242;8.648;2022-07-30T04:23:51;3.63;;;3.17;;
54993;SDS011;40891;47.242;8.648;2022-07-30T04:26:17;3.90;;;2.88;;
54993;SDS011;40891;47.242;8.648;2022-07-30T04:28:43;4.82;;;2.67;;
54993;SDS011;40891;47.242;8.648;2022-07-30T04:31:10;4.82;;;2.90;;
54993;SDS011;40891;47.242;8.648;2022-07-30T04:33:35;3.88;;;2.95;;
54993;SDS011;40891;47.242;8.648;2022-07-30T04:36:08;3.65;;;2.90;;
54993;SDS011;40891;47.242;8.648;2022-07-30T04:38:34;6.20;;;2.75;;
54993;SDS011;40891;47.242;8.648;2022-07-30T04:40:59;2.75;;;2.55;;
54993;SDS011;40891;47.242;8.648;2022-07-30T04:43:24;5.20;;;3.17;;
54993;SDS011;40891;47.242;8.648;2022-07-30T04:45:50;4.35;;;2.85;;
54993;SDS011;40891;47.242;8.648;2022-07-30T04:48:16;5.95;;;3.05;;
54993;SDS011;40891;47.242;8.648;2022-07-30T04:50:42;6.88;;;2.95;;
54993;SDS011;40891;47.242;8.648;2022-07-30T04:53:11;3.55;;;3.08;;
54993;SDS011;40891;47.242;8.648;2022-07-30T04:55:37;6.90;;;2.78;;
54993;SDS011;40891;47.242;8.648;2022-07-30T04:58:06;4.35;;;2.72;;
54993;SDS011;40891;47.242;8.648;2022-07-30T05:00:33;4.80;;;2.85;;
54993;SDS011;40891;47.242;8.648;2022-07-30T05:03:00;3.50;;;2.72;;
54993;SDS011;40891;47.242;8.648;2022-07-30T05:05:26;3.67;;;2.60;;
54993;SDS011;40891;47.242;8.648;2022-07-30T05:07:56;3.83;;;2.47;;
54993;SDS011;40891;47.242;8.648;2022-07-30T05:10:22;4.65;;;2.70;;
54993;SDS011;40891;47.242;8.648;2022-07-30T05:12:47;4.13;;;2.40;;
54993;SDS011;40891;47.242;8.648;2022-07-30T05:15:12;4.00;;;2.55;;
54993;SDS011;40891;47.242;8.648;2022-07-30T05:17:38;3.38;;;2.42;;
54993;SDS011;40891;47.242;8.648;2022-07-30T05:20:04;4.05;;;2.65;;
54993;SDS011;40891;47.242;8.648;2022-07-30T05:22:29;7.68;;;2.50;;
54993;SDS011;40891;47.242;8.648;2022-07-30T05:24:55;5.28;;;3.00;;
54993;SDS011;40891;47.242;8.648;2022-07-30T05:27:21;6.40;;;2.50;;
54993;SDS011;40891;47.242;8.648;2022-07-30T05:29:46;7.97;;;2.63;;
54993;SDS011;40891;47.242;8.648;2022-07-30T05:32:12;4.88;;;2.58;;
54993;SDS011;40891;47.242;8.648;2022-07-30T05:34:37;3.22;;;2.63;;
54993;SDS011;40891;47.242;8.648;2022-07-30T05:37:03;5.22;;;2.90;;
54993;SDS011;40891;47.242;8.648;2022-07-30T05:39:28;2.90;;;2.60;;
54993;SDS011;40891;47.242;8.648;2022-07-30T05:41:53;5.70;;;2.70;;
54993;SDS011;40891;47.242;8.648;2022-07-30T05:44:19;3.50;;;2.90;;
54993;SDS011;40891;47.242;8.648;2022-07-30T05:46:44;6.32;;;2.90;;
54993;SDS011;40891;47.242;8.648;2022-07-30T05:49:10;6.57;;;2.85;;
54993;SDS011;40891;47.242;8.648;2022-07-30T05:51:35;4.00;;;2.55;;
54993;SDS011;40891;47.242;8.648;2022-07-30T05:54:00;2.85;;;2.55;;
54993;SDS011;40891;47.242;8.648;2022-07-30T05:56:25;4.03;;;2.33;;
54993;SDS011;40891;47.242;8.648;2022-07-30T05:58:51;4.38;;;2.10;;
54993;SDS011;40891;47.242;8.648;2022-07-30T06:01:16;2.47;;;2.25;;
54993;SDS011;40891;47.242;8.648;2022-07-30T06:03:42;5.72;;;2.05;;
54993;SDS011;40891;47.242;8.648;2022-07-30T06:06:07;5.25;;;2.30;;
54993;SDS011;40891;47.242;8.648;2022-07-30T06:08:32;2.88;;;2.33;;
54993;SDS011;40891;47.242;8.648;2022-07-30T06:10:58;2.97;;;2.30;;
54993;SDS011;40891;47.242;8.648;2022-07-30T06:13:23;3.22;;;2.58;;
54993;SDS011;40891;47.242;8.648;2022-07-30T06:15:49;9.95;;;2.67;;
54993;SDS011;40891;47.242;8.648;2022-07-30T06:18:14;4.50;;;2.45;;
54993;SDS011;40891;47.242;8.648;2022-07-30T06:20:39;5.20;;;2.58;;
54993;SDS011;40891;47.242;8.648;2022-07-30T06:23:04;5.35;;;2.30;;
54993;SDS011;40891;47.242;8.648;2022-07-30T06:25:30;6.25;;;2.20;;
54993;SDS011;40891;47.242;8.648;2022-07-30T06:27:55;4.15;;;2.10;;
54993;SDS011;40891;47.242;8.648;2022-07-30T06:30:21;2.58;;;2.35;;
54993;SDS011;40891;47.242;8.648;2022-07-30T06:32:46;3.53;;;2.50;;
54993;SDS011;40891;47.242;8.648;2022-07-30T06:35:11;4.50;;;3.08;;
54993;SDS011;40891;47.242;8.648;2022-07-30T06:37:37;2.97;;;2.45;;
54993;SDS011;40891;47.242;8.648;2022-07-30T06:40:02;6.00;;;2.35;;
54993;SDS011;40891;47.242;8.648;2022-07-30T06:42:29;6.00;;;2.50;;
54993;SDS011;40891;47.242;8.648;2022-07-30T06:44:54;3.35;;;2.70;;
54993;SDS011;40891;47.242;8.648;2022-07-30T06:47:19;3.90;;;2.42;;
54993;SDS011;40891;47.242;8.648;2022-07-30T06:49:50;4.22;;;2.30;;
54993;SDS011;40891;47.242;8.648;2022-07-30T06:52:15;3.95;;;2.30;;
54993;SDS011;40891;47.242;8.648;2022-07-30T06:54:41;2.63;;;2.33;;
54993;SDS011;40891;47.242;8.648;2022-07-30T06:57:06;5.65;;;2.33;;
54993;SDS011;40891;47.242;8.648;2022-07-30T06:59:31;4.38;;;2.40;;
54993;SDS011;40891;47.242;8.648;2022-07-30T07:01:57;4.78;;;2.40;;
54993;SDS011;40891;47.242;8.648;2022-07-30T07:04:22;5.18;;;2.45;;
54993;SDS011;40891;47.242;8.648;2022-07-30T07:06:47;6.35;;;2.50;;
54993;SDS011;40891;47.242;8.648;2022-07-30T07:09:13;4.10;;;2.40;;
54993;SDS011;40891;47.242;8.648;2022-07-30T07:11:38;3.25;;;2.10;;
54993;SDS011;40891;47.242;8.648;2022-07-30T07:14:03;3.72;;;2.42;;
54993;SDS011;40891;47.242;8.648;2022-07-30T07:16:28;3.35;;;2.00;;
54993;SDS011;40891;47.242;8.648;2022-07-30T07:18:54;4.10;;;1.95;;
54993;SDS011;40891;47.242;8.648;2022-07-30T07:21:19;3.65;;;2.25;;
54993;SDS011;40891;47.242;8.648;2022-07-30T07:23:45;4.35;;;2.47;;
54993;SDS011;40891;47.242;8.648;2022-07-30T07:26:13;3.20;;;1.98;;
54993;SDS011;40891;47.242;8.648;2022-07-30T07:28:38;5.25;;;2.33;;
54993;SDS011;40891;47.242;8.648;2022-07-30T07:31:04;3.35;;;1.90;;
54993;SDS011;40891;47.242;8.648;2022-07-30T07:33:30;5.10;;;2.22;;
54993;SDS011;40891;47.242;8.648;2022-07-30T07:35:55;2.08;;;1.73;;
54993;SDS011;40891;47.242;8.648;2022-07-30T07:38:21;3.00;;;2.40;;
54993;SDS011;40891;47.242;8.648;2022-07-30T07:40:46;4.55;;;2.40;;
54993;SDS011;40891;47.242;8.648;2022-07-30T07:43:12;7.70;;;2.40;;
54993;SDS011;40891;47.242;8.648;2022-07-30T07:45:39;4.97;;;2.15;;
54993;SDS011;40891;47.242;8.648;2022-07-30T07:48:05;3.13;;;2.28;;
54993;SDS011;40891;47.242;8.648;2022-07-30T07:50:30;3.33;;;2.30;;
54993;SDS011;40891;47.242;8.648;2022-07-30T07:52:56;7.55;;;2.67;;
54993;SDS011;40891;47.242;8.648;2022-07-30T07:55:21;4.47;;;2.08;;
54993;SDS011;40891;47.242;8.648;2022-07-30T07:57:47;7.55;;;2.40;;
54993;SDS011;40891;47.242;8.648;2022-07-30T08:00:13;6.15;;;2.70;;
54993;SDS011;40891;47.242;8.648;2022-07-30T08:02:39;6.68;;;2.90;;
54993;SDS011;40891;47.242;8.648;2022-07-30T08:05:04;3.00;;;2.70;;
54993;SDS011;40891;47.242;8.648;2022-07-30T08:07:31;3.15;;;2.67;;
54993;SDS011;40891;47.242;8.648;2022-07-30T08:09:57;3.30;;;2.45;;
54993;SDS011;40891;47.242;8.648;2022-07-30T08:12:23;3.53;;;2.45;;
54993;SDS011;40891;47.242;8.648;2022-07-30T08:14:49;6.82;;;3.03;;
54993;SDS011;40891;47.242;8.648;2022-07-30T08:17:14;7.32;;;2.40;;
54993;SDS011;40891;47.242;8.648;2022-07-30T08:19:40;5.60;;;2.47;;
54993;SDS011;40891;47.242;8.648;2022-07-30T08:22:05;5.57;;;2.50;;
54993;SDS011;40891;47.242;8.648;2022-07-30T08:24:31;3.67;;;2.30;;
54993;SDS011;40891;47.242;8.648;2022-07-30T08:26:56;2.67;;;2.47;;
54993;SDS011;40891;47.242;8.648;2022-07-30T08:29:22;5.07;;;2.33;;
54993;SDS011;40891;47.242;8.648;2022-07-30T08:31:47;2.50;;;2.28;;
54993;SDS011;40891;47.242;8.648;2022-07-30T08:34:13;3.25;;;2.38;;
54993;SDS011;40891;47.242;8.648;2022-07-30T08:36:38;5.68;;;2.72;;
54993;SDS011;40891;47.242;8.648;2022-07-30T08:39:04;3.22;;;2.20;;
54993;SDS011;40891;47.242;8.648;2022-07-30T08:41:29;4.80;;;2.78;;
54993;SDS011;40891;47.242;8.648;2022-07-30T08:43:54;3.58;;;2.25;;
54993;SDS011;40891;47.242;8.648;2022-07-30T08:46:24;4.55;;;2.35;;
54993;SDS011;40891;47.242;8.648;2022-07-30T08:48:53;3.40;;;2.05;;
54993;SDS011;40891;47.242;8.648;2022-07-30T08:51:19;3.67;;;2.10;;
54993;SDS011;40891;47.242;8.648;2022-07-30T08:53:46;3.13;;;2.58;;
54993;SDS011;40891;47.242;8.648;2022-07-30T08:56:12;4.82;;;2.30;;
54993;SDS011;40891;47.242;8.648;2022-07-30T08:58:37;6.07;;;2.17;;
54993;SDS011;40891;47.242;8.648;2022-07-30T09:01:03;2.97;;;2.10;;
54993;SDS011;40891;47.242;8.648;2022-07-30T09:03:29;2.45;;;2.25;;
54993;SDS011;40891;47.242;8.648;2022-07-30T09:05:55;6.78;;;2.65;;
54993;SDS011;40891;47.242;8.648;2022-07-30T09:08:21;3.53;;;2.50;;
54993;SDS011;40891;47.242;8.648;2022-07-30T09:10:46;4.25;;;2.17;;
54993;SDS011;40891;47.242;8.648;2022-07-30T09:13:34;5.15;;;2.42;;
54993;SDS011;40891;47.242;8.648;2022-07-30T09:16:05;2.97;;;2.20;;
54993;SDS011;40891;47.242;8.648;2022-07-30T09:21:13;5.82;;;2.50;;
54993;SDS011;40891;47.242;8.648;2022-07-30T09:23:38;4.90;;;2.25;;
54993;SDS011;40891;47.242;8.648;2022-07-30T09:26:04;5.53;;;2.28;;
54993;SDS011;40891;47.242;8.648;2022-07-30T09:28:30;4.05;;;2.78;;
54993;SDS011;40891;47.242;8.648;2022-07-30T09:30:58;6.55;;;2.08;;
54993;SDS011;40891;47.242;8.648;2022-07-30T09:36:06;3.88;;;2.30;;
54993;SDS011;40891;47.242;8.648;2022-07-30T09:38:43;4.88;;;2.20;;
54993;SDS011;40891;47.242;8.648;2022-07-30T09:41:14;3.88;;;2.25;;
54993;SDS011;40891;47.242;8.648;2022-07-30T09:43:44;4.95;;;2.20;;
54993;SDS011;40891;47.242;8.648;2022-07-30T09:46:11;3.33;;;2.13;;
54993;SDS011;40891;47.242;8.648;2022-07-30T09:48:36;7.35;;;2.22;;
54993;SDS011;40891;47.242;8.648;2022-07-30T09:51:02;4.90;;;2.30;;
54993;SDS011;40891;47.242;8.648;2022-07-30T09:53:27;3.45;;;1.80;;
54993;SDS011;40891;47.242;8.648;2022-07-30T09:55:53;5.60;;;2.08;;
54993;SDS011;40891;47.242;8.648;2022-07-30T09:58:20;4.47;;;2.35;;
54993;SDS011;40891;47.242;8.648;2022-07-30T10:00:45;7.82;;;2.13;;
54993;SDS011;40891;47.242;8.648;2022-07-30T10:03:21;5.32;;;2.15;;
54993;SDS011;40891;47.242;8.648;2022-07-30T10:11:04;3.75;;;2.40;;
54993;SDS011;40891;47.242;8.648;2022-07-30T10:13:30;3.05;;;2.30;;
54993;SDS011;40891;47.242;8.648;2022-07-30T10:15:57;5.28;;;2.20;;
54993;SDS011;40891;47.242;8.648;2022-07-30T10:18:23;6.13;;;2.58;;
54993;SDS011;40891;47.242;8.648;2022-07-30T10:20:49;5.75;;;2.53;;
54993;SDS011;40891;47.242;8.648;2022-07-30T10:23:14;4.65;;;2.33;;
54993;SDS011;40891;47.242;8.648;2022-07-30T10:25:41;3.45;;;2.33;;
54993;SDS011;40891;47.242;8.648;2022-07-30T10:28:07;8.63;;;2.60;;
54993;SDS011;40891;47.242;8.648;2022-07-30T10:30:33;6.07;;;2.88;;
54993;SDS011;40891;47.242;8.648;2022-07-30T10:32:59;4.55;;;2.60;;
54993;SDS011;40891;47.242;8.648;2022-07-30T10:35:25;4.72;;;2.78;;
54993;SDS011;40891;47.242;8.648;2022-07-30T10:37:51;6.25;;;2.42;;
54993;SDS011;40891;47.242;8.648;2022-07-30T10:40:26;4.82;;;2.70;;
54993;SDS011;40891;47.242;8.648;2022-07-30T10:43:05;3.03;;;2.55;;
54993;SDS011;40891;47.242;8.648;2022-07-30T10:48:16;4.30;;;2.58;;
54993;SDS011;40891;47.242;8.648;2022-07-30T10:50:50;5.95;;;2.47;;
54993;SDS011;40891;47.242;8.648;2022-07-30T10:58:55;3.55;;;2.25;;
54993;SDS011;40891;47.242;8.648;2022-07-30T11:04:25;5.10;;;2.47;;
54993;SDS011;40891;47.242;8.648;2022-07-30T11:06:51;3.70;;;2.20;;
54993;SDS011;40891;47.242;8.648;2022-07-30T11:09:41;4.10;;;2.10;;
54993;SDS011;40891;47.242;8.648;2022-07-30T11:12:07;6.10;;;2.10;;
54993;SDS011;40891;47.242;8.648;2022-07-30T11:17:14;3.80;;;1.95;;
54993;SDS011;40891;47.242;8.648;2022-07-30T11:25:02;3.90;;;2.28;;
54993;SDS011;40891;47.242;8.648;2022-07-30T11:27:39;5.03;;;2.40;;
54993;SDS011;40891;47.242;8.648;2022-07-30T11:32:41;3.55;;;2.13;;
54993;SDS011;40891;47.242;8.648;2022-07-30T11:35:14;4.80;;;2.40;;
54993;SDS011;40891;47.242;8.648;2022-07-30T11:40:27;5.35;;;2.53;;
54993;SDS011;40891;47.242;8.648;2022-07-30T11:43:26;4.28;;;2.40;;
54993;SDS011;40891;47.242;8.648;2022-07-30T11:46:16;3.97;;;2.10;;
54993;SDS011;40891;47.242;8.648;2022-07-30T11:48:56;5.65;;;1.95;;
54993;SDS011;40891;47.242;8.648;2022-07-30T11:51:23;6.82;;;2.30;;
54993;SDS011;40891;47.242;8.648;2022-07-30T11:54:02;6.32;;;2.00;;
54993;SDS011;40891;47.242;8.648;2022-07-30T11:56:29;2.80;;;1.80;;
54993;SDS011;40891;47.242;8.648;2022-07-30T11:59:01;2.97;;;1.80;;
54993;SDS011;40891;47.242;8.648;2022-07-30T12:01:30;4.90;;;1.65;;
54993;SDS011;40891;47.242;8.648;2022-07-30T12:03:57;2.33;;;1.50;;
54993;SDS011;40891;47.242;8.648;2022-07-30T12:06:27;3.50;;;1.60;;
54993;SDS011;40891;47.242;8.648;2022-07-30T12:08:52;4.20;;;1.88;;
54993;SDS011;40891;47.242;8.648;2022-07-30T12:11:18;8.23;;;1.95;;
54993;SDS011;40891;47.242;8.648;2022-07-30T12:13:54;5.05;;;1.65;;
54993;SDS011;40891;47.242;8.648;2022-07-30T12:16:24;2.80;;;1.60;;
54993;SDS011;40891;47.242;8.648;2022-07-30T12:18:50;4.88;;;1.80;;
54993;SDS011;40891;47.242;8.648;2022-07-30T12:21:15;4.45;;;1.58;;
54993;SDS011;40891;47.242;8.648;2022-07-30T12:23:41;2.45;;;1.50;;
54993;SDS011;40891;47.242;8.648;2022-07-30T12:26:21;6.25;;;1.85;;
54993;SDS011;40891;47.242;8.648;2022-07-30T12:28:48;3.88;;;1.30;;
54993;SDS011;40891;47.242;8.648;2022-07-30T12:31:15;2.33;;;1.65;;
54993;SDS011;40891;47.242;8.648;2022-07-30T12:33:41;2.60;;;1.40;;
54993;SDS011;40891;47.242;8.648;2022-07-30T12:36:06;2.50;;;1.60;;
54993;SDS011;40891;47.242;8.648;2022-07-30T12:38:41;6.90;;;1.80;;
54993;SDS011;40891;47.242;8.648;2022-07-30T12:41:09;9.65;;;1.60;;
54993;SDS011;40891;47.242;8.648;2022-07-30T12:43:48;3.63;;;1.38;;
54993;SDS011;40891;47.242;8.648;2022-07-30T12:46:18;2.65;;;1.40;;
54993;SDS011;40891;47.242;8.648;2022-07-30T12:48:58;2.17;;;1.35;;
54993;SDS011;40891;47.242;8.648;2022-07-30T12:51:30;1.52;;;1.30;;
54993;SDS011;40891;47.242;8.648;2022-07-30T12:53:57;4.45;;;1.30;;
54993;SDS011;40891;47.242;8.648;2022-07-30T12:56:25;3.45;;;1.25;;
54993;SDS011;40891;47.242;8.648;2022-07-30T12:58:52;3.58;;;1.23;;
54993;SDS011;40891;47.242;8.648;2022-07-30T13:01:37;2.72;;;1.10;;
54993;SDS011;40891;47.242;8.648;2022-07-30T13:04:07;3.97;;;1.10;;
54993;SDS011;40891;47.242;8.648;2022-07-30T13:06:32;1.70;;;1.00;;
54993;SDS011;40891;47.242;8.648;2022-07-30T13:08:58;1.48;;;0.80;;
54993;SDS011;40891;47.242;8.648;2022-07-30T13:11:45;3.30;;;1.00;;
54993;SDS011;40891;47.242;8.648;2022-07-30T13:14:10;0.98;;;0.80;;
54993;SDS011;40891;47.242;8.648;2022-07-30T13:16:37;2.83;;;1.10;;
54993;SDS011;40891;47.242;8.648;2022-07-30T13:19:03;4.13;;;1.08;;
54993;SDS011;40891;47.242;8.648;2022-07-30T13:21:29;1.95;;;0.82;;
54993;SDS011;40891;47.242;8.648;2022-07-30T13:23:55;2.45;;;0.93;;
54993;SDS011;40891;47.242;8.648;2022-07-30T13:26:20;2.22;;;1.15;;
54993;SDS011;40891;47.242;8.648;2022-07-30T13:28:46;3.45;;;1.30;;
54993;SDS011;40891;47.242;8.648;2022-07-30T13:31:11;3.05;;;1.23;;
54993;SDS011;40891;47.242;8.648;2022-07-30T13:33:37;2.83;;;1.10;;
54993;SDS011;40891;47.242;8.648;2022-07-30T13:36:03;3.33;;;1.00;;
54993;SDS011;40891;47.242;8.648;2022-07-30T13:38:32;2.60;;;1.00;;
54993;SDS011;40891;47.242;8.648;2022-07-30T13:40:57;1.23;;;1.10;;
54993;SDS011;40891;47.242;8.648;2022-07-30T13:43:23;1.65;;;1.13;;
54993;SDS011;40891;47.242;8.648;2022-07-30T13:45:49;1.48;;;1.25;;
54993;SDS011;40891;47.242;8.648;2022-07-30T13:48:14;4.10;;;1.27;;
54993;SDS011;40891;47.242;8.648;2022-07-30T13:50:40;4.20;;;1.27;;
54993;SDS011;40891;47.242;8.648;2022-07-30T13:53:06;2.63;;;1.33;;
54993;SDS011;40891;47.242;8.648;2022-07-30T13:55:32;2.33;;;1.30;;
54993;SDS011;40891;47.242;8.648;2022-07-30T13:57:58;2.50;;;1.30;;
54993;SDS011;40891;47.242;8.648;2022-07-30T14:00:24;1.75;;;1.05;;
54993;SDS011;40891;47.242;8.648;2022-07-30T14:02:49;2.50;;;1.10;;
54993;SDS011;40891;47.242;8.648;2022-07-30T14:05:15;1.73;;;1.20;;
54993;SDS011;40891;47.242;8.648;2022-07-30T14:07:40;2.15;;;1.00;;
54993;SDS011;40891;47.242;8.648;2022-07-30T14:10:06;2.00;;;1.33;;
54993;SDS011;40891;47.242;8.648;2022-07-30T14:12:32;2.67;;;1.00;;
54993;SDS011;40891;47.242;8.648;2022-07-30T14:14:58;4.53;;;1.10;;
54993;SDS011;40891;47.242;8.648;2022-07-30T14:17:24;2.50;;;1.40;;
54993;SDS011;40891;47.242;8.648;2022-07-30T14:19:50;2.75;;;1.38;;
54993;SDS011;40891;47.242;8.648;2022-07-30T14:22:18;2.03;;;1.30;;
54993;SDS011;40891;47.242;8.648;2022-07-30T14:24:46;1.83;;;1.23;;
54993;SDS011;40891;47.242;8.648;2022-07-30T14:27:12;3.63;;;1.15;;
54993;SDS011;40891;47.242;8.648;2022-07-30T14:29:38;1.67;;;0.90;;
54993;SDS011;40891;47.242;8.648;2022-07-30T14:32:03;1.33;;;0.95;;
54993;SDS011;40891;47.242;8.648;2022-07-30T14:34:29;1.63;;;0.93;;
54993;SDS011;40891;47.242;8.648;2022-07-30T14:36:54;2.42;;;0.82;;
54993;SDS011;40891;47.242;8.648;2022-07-30T14:39:19;2.20;;;1.00;;
54993;SDS011;40891;47.242;8.648;2022-07-30T14:41:45;3.03;;;1.08;;
54993;SDS011;40891;47.242;8.648;2022-07-30T14:44:10;4.32;;;1.23;;
54993;SDS011;40891;47.242;8.648;2022-07-30T14:46:37;3.20;;;1.10;;
54993;SDS011;40891;47.242;8.648;2022-07-30T14:49:03;2.63;;;1.10;;
54993;SDS011;40891;47.242;8.648;2022-07-30T14:51:29;2.70;;;1.20;;
54993;SDS011;40891;47.242;8.648;2022-07-30T14:53:56;2.42;;;1.08;;
54993;SDS011;40891;47.242;8.648;2022-07-30T14:56:21;3.25;;;1.20;;
54993;SDS011;40891;47.242;8.648;2022-07-30T14:58:47;4.97;;;1.00;;
54993;SDS011;40891;47.242;8.648;2022-07-30T15:01:13;2.47;;;1.17;;
54993;SDS011;40891;47.242;8.648;2022-07-30T15:03:38;3.47;;;0.95;;
54993;SDS011;40891;47.242;8.648;2022-07-30T15:06:03;1.55;;;0.98;;
54993;SDS011;40891;47.242;8.648;2022-07-30T15:08:29;1.58;;;1.00;;
54993;SDS011;40891;47.242;8.648;2022-07-30T15:10:54;2.83;;;1.27;;
54993;SDS011;40891;47.242;8.648;2022-07-30T15:13:20;2.03;;;1.20;;
54993;SDS011;40891;47.242;8.648;2022-07-30T15:15:45;3.08;;;1.17;;
54993;SDS011;40891;47.242;8.648;2022-07-30T15:18:11;7.60;;;1.30;;
54993;SDS011;40891;47.242;8.648;2022-07-30T15:20:37;2.53;;;1.30;;
54993;SDS011;40891;47.242;8.648;2022-07-30T15:23:02;1.98;;;1.20;;
54993;SDS011;40891;47.242;8.648;2022-07-30T15:25:28;3.25;;;1.00;;
54993;SDS011;40891;47.242;8.648;2022-07-30T15:27:53;2.15;;;1.02;;
54993;SDS011;40891;47.242;8.648;2022-07-30T15:30:18;3.85;;;1.20;;